sensor_id;sensor_type;location;lat;lon;timestamp;temperature;humidity
32095;DHT22;18608;53.688;10.748;2022-12-07T00:01:18;1.70;99.90
32095;DHT22;18608;53.688;10.748;2022-12-07T00:03:45;1.70;99.90
32095;DHT22;18608;53.688;10.748;2022-12-07T00:06:13;1.70;99.90
32095;DHT22;18608;53.688;10.748;2022-12-07T00:08:39;1.70;99.90
32095;DHT22;18608;53.688;10.748;2022-12-07T00:11:25;1.80;99.90
32095;DHT22;18608;53.688;10.748;2022-12-07T00:13:52;1.80;99.90
32095;DHT22;18608;53.688;10.748;2022-12-07T00:16:20;1.70;99.90
32095;DHT22;18608;53.688;10.748;2022-12-07T00:18:47;1.80;99.90
32095;DHT22;18608;53.688;10.748;2022-12-07T00:21:14;1.80;99.90
32095;DHT22;18608;53.688;10.748;2022-12-07T00:23:42;1.80;99.90
32095;DHT22;18608;53.688;10.748;2022-12-07T00:26:10;1.80;99.90
32095;DHT22;18608;53.688;10.748;2022-12-07T00:28:37;1.90;99.90
32095;DHT22;18608;53.688;10.748;2022-12-07T00:31:08;1.90;99.90
32095;DHT22;18608;53.688;10.748;2022-12-07T00:33:34;1.80;99.90
32095;DHT22;18608;53.688;10.748;2022-12-07T00:36:01;1.90;99.90
32095;DHT22;18608;53.688;10.748;2022-12-07T00:38:30;1.90;99.90
32095;DHT22;18608;53.688;10.748;2022-12-07T00:41:00;1.90;99.90
32095;DHT22;18608;53.688;10.748;2022-12-07T00:43:27;1.80;99.90
32095;DHT22;18608;53.688;10.748;2022-12-07T00:45:53;1.80;99.90
32095;DHT22;18608;53.688;10.748;2022-12-07T00:48:20;1.90;99.90
32095;DHT22;18608;53.688;10.748;2022-12-07T00:50:45;1.80;99.90
32095;DHT22;18608;53.688;10.748;2022-12-07T00:53:11;1.90;99.90
32095;DHT22;18608;53.688;10.748;2022-12-07T00:55:37;1.90;99.90
32095;DHT22;18608;53.688;10.748;2022-12-07T00:58:03;2.00;99.90
32095;DHT22;18608;53.688;10.748;2022-12-07T01:00:29;2.00;99.90
32095;DHT22;18608;53.688;10.748;2022-12-07T01:02:54;2.00;99.90
32095;DHT22;18608;53.688;10.748;2022-12-07T01:05:20;2.10;99.90
32095;DHT22;18608;53.688;10.748;2022-12-07T01:07:46;2.10;99.90
32095;DHT22;18608;53.688;10.748;2022-12-07T01:10:15;2.10;99.90
32095;DHT22;18608;53.688;10.748;2022-12-07T01:12:41;2.10;99.90
32095;DHT22;18608;53.688;10.748;2022-12-07T01:15:07;2.10;99.90
32095;DHT22;18608;53.688;10.748;2022-12-07T01:17:33;2.20;99.90
32095;DHT22;18608;53.688;10.748;2022-12-07T01:19:59;2.20;99.90
32095;DHT22;18608;53.688;10.748;2022-12-07T01:22:25;2.30;99.90
32095;DHT22;18608;53.688;10.748;2022-12-07T01:24:51;2.20;99.90
32095;DHT22;18608;53.688;10.748;2022-12-07T01:27:16;2.30;99.90
32095;DHT22;18608;53.688;10.748;2022-12-07T01:29:42;2.30;99.90
32095;DHT22;18608;53.688;10.748;2022-12-07T01:32:07;2.30;99.90
32095;DHT22;18608;53.688;10.748;2022-12-07T01:34:33;2.30;99.90
32095;DHT22;18608;53.688;10.748;2022-12-07T01:36:58;2.40;99.90
32095;DHT22;18608;53.688;10.748;2022-12-07T01:39:24;2.40;99.90
32095;DHT22;18608;53.688;10.748;2022-12-07T01:41:50;2.40;99.90
32095;DHT22;18608;53.688;10.748;2022-12-07T01:46:44;2.50;99.90
32095;DHT22;18608;53.688;10.748;2022-12-07T01:51:46;2.50;99.90
32095;DHT22;18608;53.688;10.748;2022-12-07T01:54:14;2.60;99.90
32095;DHT22;18608;53.688;10.748;2022-12-07T01:56:47;2.50;99.90
32095;DHT22;18608;53.688;10.748;2022-12-07T01:59:15;2.50;99.90
32095;DHT22;18608;53.688;10.748;2022-12-07T02:01:41;2.60;99.90
32095;DHT22;18608;53.688;10.748;2022-12-07T02:04:07;2.60;99.90
32095;DHT22;18608;53.688;10.748;2022-12-07T02:06:35;2.70;99.90
32095;DHT22;18608;53.688;10.748;2022-12-07T02:09:02;2.60;99.90
32095;DHT22;18608;53.688;10.748;2022-12-07T02:11:28;2.60;99.90
32095;DHT22;18608;53.688;10.748;2022-12-07T02:13:54;2.60;99.90
32095;DHT22;18608;53.688;10.748;2022-12-07T02:16:29;2.70;99.90
32095;DHT22;18608;53.688;10.748;2022-12-07T02:27:43;2.70;99.90
32095;DHT22;18608;53.688;10.748;2022-12-07T02:30:13;2.70;99.90
32095;DHT22;18608;53.688;10.748;2022-12-07T02:38:29;2.80;99.90
32095;DHT22;18608;53.688;10.748;2022-12-07T02:41:20;2.90;99.90
32095;DHT22;18608;53.688;10.748;2022-12-07T02:43:56;2.90;99.90
32095;DHT22;18608;53.688;10.748;2022-12-07T02:46:26;3.00;99.90
32095;DHT22;18608;53.688;10.748;2022-12-07T02:48:54;3.00;99.90
32095;DHT22;18608;53.688;10.748;2022-12-07T02:51:21;3.00;99.90
32095;DHT22;18608;53.688;10.748;2022-12-07T02:53:47;3.00;99.90
32095;DHT22;18608;53.688;10.748;2022-12-07T03:04:49;3.00;99.90
32095;DHT22;18608;53.688;10.748;2022-12-07T03:07:33;3.00;99.90
32095;DHT22;18608;53.688;10.748;2022-12-07T03:13:01;3.00;99.90
32095;DHT22;18608;53.688;10.748;2022-12-07T03:18:12;2.90;99.90
32095;DHT22;18608;53.688;10.748;2022-12-07T03:20:39;2.90;99.90
32095;DHT22;18608;53.688;10.748;2022-12-07T03:23:08;2.90;99.90
32095;DHT22;18608;53.688;10.748;2022-12-07T03:25:42;2.90;99.90
32095;DHT22;18608;53.688;10.748;2022-12-07T03:28:12;2.80;99.90
32095;DHT22;18608;53.688;10.748;2022-12-07T03:30:44;2.70;99.90
32095;DHT22;18608;53.688;10.748;2022-12-07T03:33:13;2.70;99.90
32095;DHT22;18608;53.688;10.748;2022-12-07T03:35:45;2.70;99.90
32095;DHT22;18608;53.688;10.748;2022-12-07T03:38:23;2.70;99.90
32095;DHT22;18608;53.688;10.748;2022-12-07T03:40:58;2.70;99.90
32095;DHT22;18608;53.688;10.748;2022-12-07T03:43:27;2.70;99.90
32095;DHT22;18608;53.688;10.748;2022-12-07T03:49:07;2.80;99.90
32095;DHT22;18608;53.688;10.748;2022-12-07T03:51:38;2.80;99.90
32095;DHT22;18608;53.688;10.748;2022-12-07T03:54:15;2.90;99.90
32095;DHT22;18608;53.688;10.748;2022-12-07T03:56:43;2.90;99.90
32095;DHT22;18608;53.688;10.748;2022-12-07T03:59:11;2.80;99.90
32095;DHT22;18608;53.688;10.748;2022-12-07T04:01:37;2.80;99.90
32095;DHT22;18608;53.688;10.748;2022-12-07T04:04:03;2.80;99.90
32095;DHT22;18608;53.688;10.748;2022-12-07T04:06:29;2.80;99.90
32095;DHT22;18608;53.688;10.748;2022-12-07T04:08:54;2.80;99.90
32095;DHT22;18608;53.688;10.748;2022-12-07T04:11:20;2.70;99.90
32095;DHT22;18608;53.688;10.748;2022-12-07T04:13:46;2.70;99.90
32095;DHT22;18608;53.688;10.748;2022-12-07T04:16:30;2.60;99.90
32095;DHT22;18608;53.688;10.748;2022-12-07T04:18:56;2.60;99.90
32095;DHT22;18608;53.688;10.748;2022-12-07T04:21:21;2.50;99.90
32095;DHT22;18608;53.688;10.748;2022-12-07T04:23:47;2.50;99.90
32095;DHT22;18608;53.688;10.748;2022-12-07T04:26:12;2.50;99.90
32095;DHT22;18608;53.688;10.748;2022-12-07T04:28:38;2.50;99.90
32095;DHT22;18608;53.688;10.748;2022-12-07T04:31:04;2.50;99.90
32095;DHT22;18608;53.688;10.748;2022-12-07T04:33:29;2.40;99.90
32095;DHT22;18608;53.688;10.748;2022-12-07T04:35:55;2.40;99.90
32095;DHT22;18608;53.688;10.748;2022-12-07T04:38:21;2.40;99.90
32095;DHT22;18608;53.688;10.748;2022-12-07T04:40:46;2.40;99.90
32095;DHT22;18608;53.688;10.748;2022-12-07T04:43:12;2.40;99.90
32095;DHT22;18608;53.688;10.748;2022-12-07T04:45:37;2.30;99.90
32095;DHT22;18608;53.688;10.748;2022-12-07T04:48:03;2.30;99.90
32095;DHT22;18608;53.688;10.748;2022-12-07T04:50:29;2.30;99.90
32095;DHT22;18608;53.688;10.748;2022-12-07T04:52:54;2.20;99.90
32095;DHT22;18608;53.688;10.748;2022-12-07T04:55:20;2.20;99.90
32095;DHT22;18608;53.688;10.748;2022-12-07T04:57:45;2.20;99.90
32095;DHT22;18608;53.688;10.748;2022-12-07T05:00:11;2.30;99.90
32095;DHT22;18608;53.688;10.748;2022-12-07T05:02:37;2.20;99.90
32095;DHT22;18608;53.688;10.748;2022-12-07T05:05:02;2.10;99.90
32095;DHT22;18608;53.688;10.748;2022-12-07T05:07:28;2.20;99.90
32095;DHT22;18608;53.688;10.748;2022-12-07T05:09:54;2.10;99.90
32095;DHT22;18608;53.688;10.748;2022-12-07T05:12:19;2.00;99.90
32095;DHT22;18608;53.688;10.748;2022-12-07T05:14:45;2.00;99.90
32095;DHT22;18608;53.688;10.748;2022-12-07T05:17:10;2.00;99.90
32095;DHT22;18608;53.688;10.748;2022-12-07T05:19:36;2.00;99.90
32095;DHT22;18608;53.688;10.748;2022-12-07T05:22:02;2.00;99.90
32095;DHT22;18608;53.688;10.748;2022-12-07T05:24:28;1.90;99.90
32095;DHT22;18608;53.688;10.748;2022-12-07T05:26:53;1.90;99.90
32095;DHT22;18608;53.688;10.748;2022-12-07T05:29:19;1.90;99.90
32095;DHT22;18608;53.688;10.748;2022-12-07T05:31:45;1.80;99.90
32095;DHT22;18608;53.688;10.748;2022-12-07T05:34:11;1.70;99.90
32095;DHT22;18608;53.688;10.748;2022-12-07T05:36:37;1.70;99.90
32095;DHT22;18608;53.688;10.748;2022-12-07T05:39:03;1.70;99.90
32095;DHT22;18608;53.688;10.748;2022-12-07T05:41:28;1.60;99.90
32095;DHT22;18608;53.688;10.748;2022-12-07T05:44:13;1.60;99.90
32095;DHT22;18608;53.688;10.748;2022-12-07T05:46:38;1.50;99.90
32095;DHT22;18608;53.688;10.748;2022-12-07T05:49:04;1.40;99.90
32095;DHT22;18608;53.688;10.748;2022-12-07T05:51:29;1.40;99.90
32095;DHT22;18608;53.688;10.748;2022-12-07T05:53:55;1.30;99.90
32095;DHT22;18608;53.688;10.748;2022-12-07T05:56:21;1.30;99.90
32095;DHT22;18608;53.688;10.748;2022-12-07T05:58:47;1.20;99.90
32095;DHT22;18608;53.688;10.748;2022-12-07T06:01:31;1.20;99.90
32095;DHT22;18608;53.688;10.748;2022-12-07T06:03:56;1.10;99.90
32095;DHT22;18608;53.688;10.748;2022-12-07T06:06:22;1.10;99.90
32095;DHT22;18608;53.688;10.748;2022-12-07T06:08:48;1.10;99.90
32095;DHT22;18608;53.688;10.748;2022-12-07T06:11:13;1.10;99.90
32095;DHT22;18608;53.688;10.748;2022-12-07T06:13:57;1.00;99.90
32095;DHT22;18608;53.688;10.748;2022-12-07T06:16:23;1.10;99.90
32095;DHT22;18608;53.688;10.748;2022-12-07T06:18:48;1.00;99.90
32095;DHT22;18608;53.688;10.748;2022-12-07T06:21:14;1.00;99.90
32095;DHT22;18608;53.688;10.748;2022-12-07T06:23:40;1.00;99.90
32095;DHT22;18608;53.688;10.748;2022-12-07T06:26:05;1.00;99.90
32095;DHT22;18608;53.688;10.748;2022-12-07T06:28:31;0.90;99.90
32095;DHT22;18608;53.688;10.748;2022-12-07T06:31:01;0.90;99.90
32095;DHT22;18608;53.688;10.748;2022-12-07T06:33:28;0.90;99.90
32095;DHT22;18608;53.688;10.748;2022-12-07T06:35:54;0.90;99.90
32095;DHT22;18608;53.688;10.748;2022-12-07T06:38:20;0.90;99.90
32095;DHT22;18608;53.688;10.748;2022-12-07T06:40:46;0.90;99.90
32095;DHT22;18608;53.688;10.748;2022-12-07T06:43:12;0.90;99.90
32095;DHT22;18608;53.688;10.748;2022-12-07T06:45:38;0.90;99.90
32095;DHT22;18608;53.688;10.748;2022-12-07T06:48:03;0.90;99.90
32095;DHT22;18608;53.688;10.748;2022-12-07T06:50:29;0.90;99.90
32095;DHT22;18608;53.688;10.748;2022-12-07T06:52:54;0.80;99.90
32095;DHT22;18608;53.688;10.748;2022-12-07T06:55:20;0.90;99.90
32095;DHT22;18608;53.688;10.748;2022-12-07T06:57:45;0.90;99.90
32095;DHT22;18608;53.688;10.748;2022-12-07T07:00:12;0.90;99.90
32095;DHT22;18608;53.688;10.748;2022-12-07T07:02:37;0.90;99.90
32095;DHT22;18608;53.688;10.748;2022-12-07T07:05:03;0.90;99.90
32095;DHT22;18608;53.688;10.748;2022-12-07T07:07:29;0.90;99.90
32095;DHT22;18608;53.688;10.748;2022-12-07T07:09:54;0.90;99.90
32095;DHT22;18608;53.688;10.748;2022-12-07T07:12:20;0.90;99.90
32095;DHT22;18608;53.688;10.748;2022-12-07T07:14:45;0.90;99.90
32095;DHT22;18608;53.688;10.748;2022-12-07T07:17:11;0.90;99.90
32095;DHT22;18608;53.688;10.748;2022-12-07T07:19:37;0.90;99.90
32095;DHT22;18608;53.688;10.748;2022-12-07T07:22:03;0.90;99.90
32095;DHT22;18608;53.688;10.748;2022-12-07T07:24:29;0.90;99.90
32095;DHT22;18608;53.688;10.748;2022-12-07T07:26:54;0.80;99.90
32095;DHT22;18608;53.688;10.748;2022-12-07T07:29:20;0.80;99.90
32095;DHT22;18608;53.688;10.748;2022-12-07T07:31:46;0.80;99.90
32095;DHT22;18608;53.688;10.748;2022-12-07T07:34:11;0.80;99.90
32095;DHT22;18608;53.688;10.748;2022-12-07T07:36:37;0.70;99.90
32095;DHT22;18608;53.688;10.748;2022-12-07T07:39:03;0.70;99.90
32095;DHT22;18608;53.688;10.748;2022-12-07T07:41:29;0.70;99.90
32095;DHT22;18608;53.688;10.748;2022-12-07T07:43:54;0.60;99.90
32095;DHT22;18608;53.688;10.748;2022-12-07T07:46:20;0.60;99.90
32095;DHT22;18608;53.688;10.748;2022-12-07T07:48:45;0.60;99.90
32095;DHT22;18608;53.688;10.748;2022-12-07T07:51:11;0.60;99.90
32095;DHT22;18608;53.688;10.748;2022-12-07T07:53:37;0.60;99.90
32095;DHT22;18608;53.688;10.748;2022-12-07T07:56:03;0.60;99.90
32095;DHT22;18608;53.688;10.748;2022-12-07T07:58:28;0.60;99.90
32095;DHT22;18608;53.688;10.748;2022-12-07T08:00:54;0.60;99.90
32095;DHT22;18608;53.688;10.748;2022-12-07T08:03:20;0.60;99.90
32095;DHT22;18608;53.688;10.748;2022-12-07T08:05:45;0.60;99.90
32095;DHT22;18608;53.688;10.748;2022-12-07T08:08:11;0.60;99.90
32095;DHT22;18608;53.688;10.748;2022-12-07T08:10:37;0.60;99.90
32095;DHT22;18608;53.688;10.748;2022-12-07T08:13:03;1.00;99.90
32095;DHT22;18608;53.688;10.748;2022-12-07T08:15:41;0.70;99.90
32095;DHT22;18608;53.688;10.748;2022-12-07T08:18:07;0.80;99.90
32095;DHT22;18608;53.688;10.748;2022-12-07T08:20:34;0.80;99.90
32095;DHT22;18608;53.688;10.748;2022-12-07T08:23:00;0.80;99.90
32095;DHT22;18608;53.688;10.748;2022-12-07T08:25:26;0.90;99.90
32095;DHT22;18608;53.688;10.748;2022-12-07T08:27:52;1.00;99.90
32095;DHT22;18608;53.688;10.748;2022-12-07T08:30:18;1.10;99.90
32095;DHT22;18608;53.688;10.748;2022-12-07T08:32:45;1.10;99.90
32095;DHT22;18608;53.688;10.748;2022-12-07T08:35:11;1.20;99.90
32095;DHT22;18608;53.688;10.748;2022-12-07T08:37:37;1.20;99.90
32095;DHT22;18608;53.688;10.748;2022-12-07T08:40:07;1.20;99.90
32095;DHT22;18608;53.688;10.748;2022-12-07T08:42:32;1.20;99.90
32095;DHT22;18608;53.688;10.748;2022-12-07T08:45:06;1.20;99.90
32095;DHT22;18608;53.688;10.748;2022-12-07T08:47:34;1.20;99.90
32095;DHT22;18608;53.688;10.748;2022-12-07T08:50:01;1.30;99.90
32095;DHT22;18608;53.688;10.748;2022-12-07T08:52:30;1.40;99.90
32095;DHT22;18608;53.688;10.748;2022-12-07T08:54:56;1.40;99.90
32095;DHT22;18608;53.688;10.748;2022-12-07T08:57:22;1.40;99.90
32095;DHT22;18608;53.688;10.748;2022-12-07T08:59:47;1.50;99.90
32095;DHT22;18608;53.688;10.748;2022-12-07T09:02:13;1.60;99.90
32095;DHT22;18608;53.688;10.748;2022-12-07T09:04:38;1.70;99.90
32095;DHT22;18608;53.688;10.748;2022-12-07T09:07:04;1.70;99.90
32095;DHT22;18608;53.688;10.748;2022-12-07T09:09:30;1.80;99.90
32095;DHT22;18608;53.688;10.748;2022-12-07T09:11:56;1.90;99.90
32095;DHT22;18608;53.688;10.748;2022-12-07T09:14:22;1.90;99.90
32095;DHT22;18608;53.688;10.748;2022-12-07T09:16:48;2.00;99.90
32095;DHT22;18608;53.688;10.748;2022-12-07T09:19:14;2.10;99.90
32095;DHT22;18608;53.688;10.748;2022-12-07T09:21:39;2.20;99.90
32095;DHT22;18608;53.688;10.748;2022-12-07T09:24:05;2.30;99.90
32095;DHT22;18608;53.688;10.748;2022-12-07T09:26:31;2.30;99.90
32095;DHT22;18608;53.688;10.748;2022-12-07T09:28:56;2.40;99.90
32095;DHT22;18608;53.688;10.748;2022-12-07T09:31:22;2.40;99.90
32095;DHT22;18608;53.688;10.748;2022-12-07T09:33:54;2.40;99.90
32095;DHT22;18608;53.688;10.748;2022-12-07T09:36:20;2.40;99.90
32095;DHT22;18608;53.688;10.748;2022-12-07T09:38:46;2.40;99.90
32095;DHT22;18608;53.688;10.748;2022-12-07T09:41:11;2.40;99.90
32095;DHT22;18608;53.688;10.748;2022-12-07T09:43:39;2.40;99.90
32095;DHT22;18608;53.688;10.748;2022-12-07T09:46:05;2.40;99.90
32095;DHT22;18608;53.688;10.748;2022-12-07T09:48:35;2.50;99.90
32095;DHT22;18608;53.688;10.748;2022-12-07T09:51:03;2.50;99.90
32095;DHT22;18608;53.688;10.748;2022-12-07T09:53:37;2.50;99.90
32095;DHT22;18608;53.688;10.748;2022-12-07T09:56:04;2.60;99.90
32095;DHT22;18608;53.688;10.748;2022-12-07T09:58:31;2.70;99.90
32095;DHT22;18608;53.688;10.748;2022-12-07T10:01:20;2.60;99.90
32095;DHT22;18608;53.688;10.748;2022-12-07T10:03:52;2.60;99.90
32095;DHT22;18608;53.688;10.748;2022-12-07T10:06:18;2.60;99.90
32095;DHT22;18608;53.688;10.748;2022-12-07T10:08:44;2.70;99.90
32095;DHT22;18608;53.688;10.748;2022-12-07T10:11:10;2.60;99.90
32095;DHT22;18608;53.688;10.748;2022-12-07T10:13:48;2.70;99.90
32095;DHT22;18608;53.688;10.748;2022-12-07T10:16:39;2.70;99.90
32095;DHT22;18608;53.688;10.748;2022-12-07T10:19:29;2.70;99.90
32095;DHT22;18608;53.688;10.748;2022-12-07T10:24:26;2.70;99.90
32095;DHT22;18608;53.688;10.748;2022-12-07T10:26:53;2.70;99.90
32095;DHT22;18608;53.688;10.748;2022-12-07T10:29:33;2.80;99.90
32095;DHT22;18608;53.688;10.748;2022-12-07T10:34:40;3.00;99.90
32095;DHT22;18608;53.688;10.748;2022-12-07T10:39:52;3.00;99.90
32095;DHT22;18608;53.688;10.748;2022-12-07T10:42:26;3.10;99.90
32095;DHT22;18608;53.688;10.748;2022-12-07T10:47:42;3.10;99.90
32095;DHT22;18608;53.688;10.748;2022-12-07T10:58:17;3.00;99.90
32095;DHT22;18608;53.688;10.748;2022-12-07T11:01:31;3.00;99.90
32095;DHT22;18608;53.688;10.748;2022-12-07T11:09:05;3.00;99.90
32095;DHT22;18608;53.688;10.748;2022-12-07T11:11:49;3.10;99.90
32095;DHT22;18608;53.688;10.748;2022-12-07T11:14:39;3.20;99.90
32095;DHT22;18608;53.688;10.748;2022-12-07T11:20:05;3.20;99.90
32095;DHT22;18608;53.688;10.748;2022-12-07T11:25:32;3.20;99.90
32095;DHT22;18608;53.688;10.748;2022-12-07T11:31:18;3.20;99.90
32095;DHT22;18608;53.688;10.748;2022-12-07T11:34:00;3.80;99.90
32095;DHT22;18608;53.688;10.748;2022-12-07T11:39:30;3.20;99.90
32095;DHT22;18608;53.688;10.748;2022-12-07T11:42:06;3.30;99.90
32095;DHT22;18608;53.688;10.748;2022-12-07T11:45:00;3.20;99.90
32095;DHT22;18608;53.688;10.748;2022-12-07T11:47:45;3.30;99.90
32095;DHT22;18608;53.688;10.748;2022-12-07T11:50:26;3.20;99.90
32095;DHT22;18608;53.688;10.748;2022-12-07T12:03:45;3.20;99.90
32095;DHT22;18608;53.688;10.748;2022-12-07T12:06:11;3.20;99.90
32095;DHT22;18608;53.688;10.748;2022-12-07T12:08:44;3.30;99.90
32095;DHT22;18608;53.688;10.748;2022-12-07T12:21:48;3.30;99.90
32095;DHT22;18608;53.688;10.748;2022-12-07T12:24:25;3.30;99.90
32095;DHT22;18608;53.688;10.748;2022-12-07T12:27:02;3.30;99.90
32095;DHT22;18608;53.688;10.748;2022-12-07T12:29:39;3.30;99.90
32095;DHT22;18608;53.688;10.748;2022-12-07T12:32:17;3.30;99.90
32095;DHT22;18608;53.688;10.748;2022-12-07T12:34:57;3.40;99.90
32095;DHT22;18608;53.688;10.748;2022-12-07T12:42:55;3.30;99.90
32095;DHT22;18608;53.688;10.748;2022-12-07T12:45:23;3.40;99.90
32095;DHT22;18608;53.688;10.748;2022-12-07T12:48:02;3.40;99.90
32095;DHT22;18608;53.688;10.748;2022-12-07T12:50:32;3.30;99.90
32095;DHT22;18608;53.688;10.748;2022-12-07T12:55:51;3.20;99.90
32095;DHT22;18608;53.688;10.748;2022-12-07T12:58:29;3.10;99.90
32095;DHT22;18608;53.688;10.748;2022-12-07T13:03:59;3.10;99.90
32095;DHT22;18608;53.688;10.748;2022-12-07T13:06:35;3.20;99.90
32095;DHT22;18608;53.688;10.748;2022-12-07T13:09:02;3.10;99.90
32095;DHT22;18608;53.688;10.748;2022-12-07T13:11:34;3.20;99.90
32095;DHT22;18608;53.688;10.748;2022-12-07T13:17:11;3.00;99.90
32095;DHT22;18608;53.688;10.748;2022-12-07T13:25:20;2.90;99.90
32095;DHT22;18608;53.688;10.748;2022-12-07T13:28:00;2.90;99.90
32095;DHT22;18608;53.688;10.748;2022-12-07T13:30:27;2.80;99.90
32095;DHT22;18608;53.688;10.748;2022-12-07T13:32:56;2.80;99.90
32095;DHT22;18608;53.688;10.748;2022-12-07T13:35:34;2.80;99.90
32095;DHT22;18608;53.688;10.748;2022-12-07T13:38:25;2.80;99.90
32095;DHT22;18608;53.688;10.748;2022-12-07T13:41:21;2.80;99.90
32095;DHT22;18608;53.688;10.748;2022-12-07T13:43:55;2.80;99.90
32095;DHT22;18608;53.688;10.748;2022-12-07T13:46:58;2.90;99.90
32095;DHT22;18608;53.688;10.748;2022-12-07T13:49:27;2.80;99.90
32095;DHT22;18608;53.688;10.748;2022-12-07T13:51:54;2.80;99.90
32095;DHT22;18608;53.688;10.748;2022-12-07T13:54:21;2.80;99.90
32095;DHT22;18608;53.688;10.748;2022-12-07T13:56:52;2.70;99.90
32095;DHT22;18608;53.688;10.748;2022-12-07T13:59:26;2.70;99.90
32095;DHT22;18608;53.688;10.748;2022-12-07T14:01:53;2.70;99.90
32095;DHT22;18608;53.688;10.748;2022-12-07T14:06:52;2.70;99.90
32095;DHT22;18608;53.688;10.748;2022-12-07T14:09:27;2.70;99.90
32095;DHT22;18608;53.688;10.748;2022-12-07T14:11:55;2.60;99.90
32095;DHT22;18608;53.688;10.748;2022-12-07T14:14:28;2.60;99.90
32095;DHT22;18608;53.688;10.748;2022-12-07T14:17:16;2.60;99.90
32095;DHT22;18608;53.688;10.748;2022-12-07T14:19:56;2.40;99.90
32095;DHT22;18608;53.688;10.748;2022-12-07T14:24:58;2.30;99.90
32095;DHT22;18608;53.688;10.748;2022-12-07T14:27:29;2.30;99.90
32095;DHT22;18608;53.688;10.748;2022-12-07T14:29:56;2.30;99.90
32095;DHT22;18608;53.688;10.748;2022-12-07T14:32:26;2.20;99.90
32095;DHT22;18608;53.688;10.748;2022-12-07T14:34:56;2.20;99.90
32095;DHT22;18608;53.688;10.748;2022-12-07T14:37:23;2.10;99.90
32095;DHT22;18608;53.688;10.748;2022-12-07T14:39:49;2.10;99.90
32095;DHT22;18608;53.688;10.748;2022-12-07T14:42:14;2.10;99.90
32095;DHT22;18608;53.688;10.748;2022-12-07T14:44:40;2.10;99.90
32095;DHT22;18608;53.688;10.748;2022-12-07T14:47:11;2.10;99.90
32095;DHT22;18608;53.688;10.748;2022-12-07T14:49:37;2.00;99.90
32095;DHT22;18608;53.688;10.748;2022-12-07T14:52:03;2.00;99.90
32095;DHT22;18608;53.688;10.748;2022-12-07T14:54:31;1.90;99.90
32095;DHT22;18608;53.688;10.748;2022-12-07T14:56:58;1.90;99.90
32095;DHT22;18608;53.688;10.748;2022-12-07T14:59:23;1.90;99.90
32095;DHT22;18608;53.688;10.748;2022-12-07T15:01:49;1.80;99.90
32095;DHT22;18608;53.688;10.748;2022-12-07T15:04:15;1.80;99.90
32095;DHT22;18608;53.688;10.748;2022-12-07T15:06:41;1.80;99.90
32095;DHT22;18608;53.688;10.748;2022-12-07T15:09:10;1.70;99.90
32095;DHT22;18608;53.688;10.748;2022-12-07T15:11:36;1.60;99.90
32095;DHT22;18608;53.688;10.748;2022-12-07T15:14:02;1.50;99.90
32095;DHT22;18608;53.688;10.748;2022-12-07T15:16:34;1.60;99.90
32095;DHT22;18608;53.688;10.748;2022-12-07T15:19:00;1.60;99.90
32095;DHT22;18608;53.688;10.748;2022-12-07T15:21:26;1.40;99.90
32095;DHT22;18608;53.688;10.748;2022-12-07T15:23:51;1.40;99.90
32095;DHT22;18608;53.688;10.748;2022-12-07T15:26:17;1.40;99.90
32095;DHT22;18608;53.688;10.748;2022-12-07T15:28:43;1.40;99.90
32095;DHT22;18608;53.688;10.748;2022-12-07T15:31:16;1.30;99.90
32095;DHT22;18608;53.688;10.748;2022-12-07T15:33:42;1.30;99.90
32095;DHT22;18608;53.688;10.748;2022-12-07T15:36:09;1.30;99.90
32095;DHT22;18608;53.688;10.748;2022-12-07T15:38:43;1.20;99.90
32095;DHT22;18608;53.688;10.748;2022-12-07T15:41:08;1.20;99.90
32095;DHT22;18608;53.688;10.748;2022-12-07T15:43:36;1.20;99.90
32095;DHT22;18608;53.688;10.748;2022-12-07T15:46:20;1.20;99.90
32095;DHT22;18608;53.688;10.748;2022-12-07T15:48:45;1.20;99.90
32095;DHT22;18608;53.688;10.748;2022-12-07T15:51:11;1.20;99.90
32095;DHT22;18608;53.688;10.748;2022-12-07T15:53:37;1.10;99.90
32095;DHT22;18608;53.688;10.748;2022-12-07T15:56:07;1.10;99.90
32095;DHT22;18608;53.688;10.748;2022-12-07T15:58:33;1.10;99.90
32095;DHT22;18608;53.688;10.748;2022-12-07T16:00:59;1.10;99.90
32095;DHT22;18608;53.688;10.748;2022-12-07T16:03:31;1.00;99.90
32095;DHT22;18608;53.688;10.748;2022-12-07T16:05:59;1.00;99.90
32095;DHT22;18608;53.688;10.748;2022-12-07T16:08:25;1.00;99.90
32095;DHT22;18608;53.688;10.748;2022-12-07T16:10:51;0.90;99.90
32095;DHT22;18608;53.688;10.748;2022-12-07T16:13:16;0.90;99.90
32095;DHT22;18608;53.688;10.748;2022-12-07T16:15:44;0.80;99.90
32095;DHT22;18608;53.688;10.748;2022-12-07T16:18:10;0.80;99.90
32095;DHT22;18608;53.688;10.748;2022-12-07T16:20:36;0.80;99.90
32095;DHT22;18608;53.688;10.748;2022-12-07T16:23:01;0.70;99.90
32095;DHT22;18608;53.688;10.748;2022-12-07T16:25:27;0.80;99.90
32095;DHT22;18608;53.688;10.748;2022-12-07T16:27:53;0.70;99.90
32095;DHT22;18608;53.688;10.748;2022-12-07T16:30:19;0.70;99.90
32095;DHT22;18608;53.688;10.748;2022-12-07T16:32:45;0.70;99.90
32095;DHT22;18608;53.688;10.748;2022-12-07T16:35:11;0.70;99.90
32095;DHT22;18608;53.688;10.748;2022-12-07T16:37:37;0.60;99.90
32095;DHT22;18608;53.688;10.748;2022-12-07T16:40:04;0.60;99.90
32095;DHT22;18608;53.688;10.748;2022-12-07T16:42:34;0.60;99.90
32095;DHT22;18608;53.688;10.748;2022-12-07T16:44:59;0.60;99.90
32095;DHT22;18608;53.688;10.748;2022-12-07T16:47:25;0.60;99.90
32095;DHT22;18608;53.688;10.748;2022-12-07T16:49:51;0.60;99.90
32095;DHT22;18608;53.688;10.748;2022-12-07T16:52:18;0.60;99.90
32095;DHT22;18608;53.688;10.748;2022-12-07T16:54:44;0.60;99.90
32095;DHT22;18608;53.688;10.748;2022-12-07T16:57:10;0.60;99.90
32095;DHT22;18608;53.688;10.748;2022-12-07T16:59:35;0.50;99.90
32095;DHT22;18608;53.688;10.748;2022-12-07T17:02:01;0.50;99.90
32095;DHT22;18608;53.688;10.748;2022-12-07T17:04:27;0.50;99.90
32095;DHT22;18608;53.688;10.748;2022-12-07T17:06:53;0.40;99.90
32095;DHT22;18608;53.688;10.748;2022-12-07T17:09:19;0.40;99.90
32095;DHT22;18608;53.688;10.748;2022-12-07T17:11:45;0.80;99.90
32095;DHT22;18608;53.688;10.748;2022-12-07T17:14:11;0.40;99.90
32095;DHT22;18608;53.688;10.748;2022-12-07T17:16:55;0.40;99.90
32095;DHT22;18608;53.688;10.748;2022-12-07T17:19:20;0.40;99.90
32095;DHT22;18608;53.688;10.748;2022-12-07T17:21:46;0.40;99.90
32095;DHT22;18608;53.688;10.748;2022-12-07T17:24:14;0.30;99.90
32095;DHT22;18608;53.688;10.748;2022-12-07T17:26:43;0.40;99.90
32095;DHT22;18608;53.688;10.748;2022-12-07T17:29:12;0.30;99.90
32095;DHT22;18608;53.688;10.748;2022-12-07T17:31:38;0.30;99.90
32095;DHT22;18608;53.688;10.748;2022-12-07T17:34:07;0.30;99.90
32095;DHT22;18608;53.688;10.748;2022-12-07T17:36:34;0.30;99.90
32095;DHT22;18608;53.688;10.748;2022-12-07T17:38:59;0.30;99.90